Pueblo, CO

4:53 PM MDT on October 22, 2014 (GMT -0600)
Belmont - Boomer Weather | Change Station
CLOSE
Current Station
Personal Weather Station
Location: Pueblo, CO
Elevation: 4869 ft
Nearby Weather Stations

Elev 4869 ft 38.30 °N, 104.58 °W | Updated 3 seconds ago

Clear
Clear
72.9 °F
Feels Like 76 °F
N
0.0
Wind Variable Wind from East
Gusts 0.0 mph

Today
High -- | Low -- °F
--% Chance of Precip.
Yesterday
High -- | Low -- °F
Precip. -- in
7:14 AM 6:10 PM
Waning Crescent, 1% visible
Pressure 29.89 in
Visibility 10.0 miles
Clouds Clear
Heat Index 76 °F
Dew Point 40 °F
Humidity 30%
Rainfall 0.00 in
Snow Depth Not available.
UV 2 out of 12
Pollen 2.40 out of 12
Air Quality Not available.
Flu Activity Sporadic
METAR KPUB 222153Z 12006KT 10SM CLR 23/03 A3002 RMK AO2 SLP121 T02330033

More Conditions Fewer Conditions

Pressure 29.89 in
Visibility 10.0 miles
Clouds Clear
Heat Index 76 °F
Dew Point 40 °F
Humidity 30%
Rainfall 0.00 in
Snow Depth Not available.
UV 2 out of 12
Pollen 2.40 out of 12
Air Quality Not available.
Flu Activity Sporadic
METAR KPUB 222153Z 12006KT 10SM CLR 23/03 A3002 RMK AO2 SLP121 T02330033

More Conditions Fewer Conditions

10-Day Weather Forecast

Almanac

Astronomy

Oct. 22, 2014 Rise Set
Actual Time 7:14 AM MDT 6:10 PM MDT
Civil Twilight 6:47 AM MDT 6:37 PM MDT
Nautical Twilight 6:16 AM MDT 7:08 PM MDT
Astronomical Twilight 5:45 AM MDT 7:38 PM MDT
Moon 5:58 AM MDT 5:38 PM MDT
Length of Visible Light 11h 50m
Length of Day
10h 56m
Tomorrow will be 2m 19s shorter.
Waning Crescent, 1% of the Moon is Illuminated
Today
Waning Crescent
Oct 23
New
Oct 30
First Quarter
Nov 6
Full
Nov 14
Last Quarter

Today's Extremes

State Highs State Lows

Community

WunderPhotos

Upload Photos

1,764,065 photos uploaded!

WunderBlogs® & News

Nearby

Snow Depth

Station Depth Elevation
Glen Cove 0 in 11460 ft
Trinchera 0 in 10860 ft
Echo Lake 0 in 10600 ft
Hoosier Pass 0 in 11400 ft
Jackwhacker Gulch 0 in 10960 ft

Earthquake Activity

City Distance Mag. Time & Date
Trinidad, Colorado 86 miles 2.7 10:33 PM MDT
2014-10-20
Trinidad, Colorado 76 miles 2.5 10:01 PM MDT
2014-10-19
Minimum magnitude displayed is 2.5.

Coastal Water Temperatures

Place Temperature
No Stations Reporting

Nearby Weather Stations